Time;durP1;ratioP1;P1;durP2;ratioP2;P2;SDS_P1;SDS_P2;PMS_P1;PMS_P2;Temp;Humidity;BMP_temperature;BMP_pressure;BME280_temperature;BME280_humidity;BME280_pressure;Samples;Min_cycle;Max_cycle;Signal;HPM_P1;HPM_P2
2024/02/19 00:01:11;;;;;;;11.90;6.38;;;;;;;;;;6071088;23;20404;-74
2024/02/19 00:03:37;;;;;;;15.27;7.50;;;;;;;;;;6047060;23;20093;-76
2024/02/19 00:06:04;;;;;;;20.10;8.38;;;;;;;;;;6048782;23;20050;-75
2024/02/19 00:08:30;;;;;;;16.58;8.25;;;;;;;;;;6046763;23;20356;-76
2024/02/19 00:10:56;;;;;;;16.27;8.23;;;;;;;;;;6043704;23;20067;-74
2024/02/19 00:13:23;;;;;;;12.73;6.90;;;;;;;;;;6071592;23;20013;-75
2024/02/19 00:15:50;;;;;;;11.65;6.75;;;;;;;;;;6024640;23;20011;-77
2024/02/19 00:18:16;;;;;;;11.63;6.43;;;;;;;;;;6047113;23;20018;-78
2024/02/19 00:20:42;;;;;;;16.55;7.10;;;;;;;;;;6050019;23;20006;-76
2024/02/19 00:23:08;;;;;;;11.63;6.32;;;;;;;;;;6046205;23;20007;-78
2024/02/19 00:25:34;;;;;;;15.30;7.07;;;;;;;;;;6045739;23;20018;-76
2024/02/19 00:27:59;;;;;;;11.00;6.38;;;;;;;;;;6045413;23;20171;-73
2024/02/19 00:30:25;;;;;;;10.80;5.93;;;;;;;;;;6071223;23;20013;-76
2024/02/19 00:32:53;;;;;;;16.33;6.47;;;;;;;;;;6044407;23;20049;-73
2024/02/19 00:35:21;;;;;;;11.57;6.13;;;;;;;;;;6071145;23;20017;-76
2024/02/19 00:37:49;;;;;;;11.52;6.55;;;;;;;;;;6045541;23;20011;-74
2024/02/19 00:40:15;;;;;;;10.13;6.00;;;;;;;;;;6044749;23;20641;-74
2024/02/19 00:42:41;;;;;;;18.77;7.68;;;;;;;;;;6044072;23;20011;-74
2024/02/19 00:45:08;;;;;;;12.85;7.03;;;;;;;;;;6070362;23;20009;-76
2024/02/19 00:47:34;;;;;;;15.48;6.95;;;;;;;;;;6021532;23;20014;-75
2024/02/19 00:49:59;;;;;;;11.65;6.30;;;;;;;;;;6069955;23;20704;-75
2024/02/19 00:52:25;;;;;;;11.80;5.72;;;;;;;;;;6069412;23;20018;-77
2024/02/19 00:54:52;;;;;;;10.03;6.40;;;;;;;;;;6069734;23;20030;-75
2024/02/19 00:57:17;;;;;;;13.27;6.63;;;;;;;;;;6021342;23;20015;-75
2024/02/19 00:59:43;;;;;;;12.32;6.03;;;;;;;;;;6044148;23;20094;-76
2024/02/19 01:02:09;;;;;;;11.65;6.68;;;;;;;;;;6044609;23;20010;-75
2024/02/19 01:04:36;;;;;;;10.95;6.15;;;;;;;;;;6044547;23;20010;-76
2024/02/19 01:07:03;;;;;;;20.30;6.30;;;;;;;;;;6069489;23;20038;-73
2024/02/19 01:09:29;;;;;;;12.15;6.00;;;;;;;;;;6044784;23;20014;-75
2024/02/19 01:11:55;;;;;;;14.50;7.00;;;;;;;;;;6044168;23;20007;-75
2024/02/19 01:14:21;;;;;;;11.57;5.63;;;;;;;;;;6069163;23;20094;-75
2024/02/19 01:16:46;;;;;;;13.02;6.18;;;;;;;;;;6044445;23;20011;-77
2024/02/19 01:19:12;;;;;;;9.52;5.65;;;;;;;;;;6070829;23;20007;-74
2024/02/19 01:21:39;;;;;;;8.80;5.85;;;;;;;;;;6044971;23;20010;-74
2024/02/19 01:24:08;;;;;;;10.95;5.10;;;;;;;;;;6046130;23;20250;-77
2024/02/19 01:26:33;;;;;;;10.65;6.30;;;;;;;;;;6048548;23;20007;-76
2024/02/19 01:28:59;;;;;;;10.55;5.78;;;;;;;;;;6075999;23;20034;-75
2024/02/19 01:31:27;;;;;;;11.52;6.07;;;;;;;;;;6059825;23;20003;-75
2024/02/19 01:33:53;;;;;;;10.85;6.35;;;;;;;;;;6057891;23;20021;-74
2024/02/19 01:36:19;;;;;;;10.52;6.35;;;;;;;;;;6048950;23;20006;-77
2024/02/19 01:38:45;;;;;;;11.38;6.63;;;;;;;;;;6045712;23;20428;-74
2024/02/19 01:41:10;;;;;;;12.02;5.88;;;;;;;;;;6045797;23;20038;-73
2024/02/19 01:43:36;;;;;;;10.45;5.65;;;;;;;;;;6070140;23;20030;-75
2024/02/19 01:46:03;;;;;;;11.13;5.50;;;;;;;;;;6071159;23;20066;-74
2024/02/19 01:48:29;;;;;;;12.82;5.90;;;;;;;;;;6045654;23;20063;-74
2024/02/19 01:50:56;;;;;;;13.40;6.13;;;;;;;;;;6044442;23;20346;-74
2024/02/19 01:53:23;;;;;;;11.32;5.72;;;;;;;;;;6088603;23;20015;-76
2024/02/19 01:55:49;;;;;;;11.98;6.57;;;;;;;;;;6044765;23;20011;-74
2024/02/19 01:58:16;;;;;;;10.63;6.10;;;;;;;;;;6069918;23;20349;-73
2024/02/19 02:00:42;;;;;;;9.93;5.15;;;;;;;;;;6050687;23;20021;-74
2024/02/19 02:03:11;;;;;;;9.50;6.43;;;;;;;;;;6073956;23;20011;-73
2024/02/19 02:05:36;;;;;;;11.00;6.05;;;;;;;;;;6069170;23;20030;-74
2024/02/19 02:08:05;;;;;;;12.50;6.35;;;;;;;;;;6070016;23;20381;-75
2024/02/19 02:10:31;;;;;;;10.60;5.90;;;;;;;;;;6070638;23;20034;-75
2024/02/19 02:12:57;;;;;;;11.32;6.18;;;;;;;;;;6072378;23;20082;-76
2024/02/19 02:15:23;;;;;;;12.18;5.50;;;;;;;;;;6070247;23;20002;-77
2024/02/19 02:17:49;;;;;;;8.30;5.32;;;;;;;;;;6045829;23;20149;-74
2024/02/19 02:20:15;;;;;;;11.93;5.25;;;;;;;;;;6069781;23;20011;-76
2024/02/19 02:22:43;;;;;;;9.38;5.25;;;;;;;;;;6070135;23;20392;-76
2024/02/19 02:25:09;;;;;;;9.45;5.55;;;;;;;;;;6070033;23;20038;-75
2024/02/19 02:27:37;;;;;;;7.80;4.90;;;;;;;;;;6074459;23;20069;-73
2024/02/19 02:30:02;;;;;;;6.55;4.38;;;;;;;;;;6071628;23;20071;-76
2024/02/19 02:32:28;;;;;;;7.80;4.57;;;;;;;;;;6069421;23;20436;-77
2024/02/19 02:34:55;;;;;;;9.05;4.63;;;;;;;;;;6068583;23;20011;-77
2024/02/19 02:37:21;;;;;;;8.95;4.60;;;;;;;;;;6070585;23;20103;-76
2024/02/19 02:39:47;;;;;;;8.07;4.10;;;;;;;;;;6046022;23;20444;-75
2024/02/19 02:42:13;;;;;;;6.43;3.35;;;;;;;;;;6070146;23;20038;-76
2024/02/19 02:44:39;;;;;;;5.07;3.70;;;;;;;;;;6070840;23;20010;-75
2024/02/19 02:47:05;;;;;;;6.80;3.95;;;;;;;;;;6071409;23;20014;-75
2024/02/19 02:49:30;;;;;;;7.13;4.00;;;;;;;;;;6069759;23;20021;-73
2024/02/19 02:51:57;;;;;;;6.75;4.15;;;;;;;;;;6045033;23;20085;-76
2024/02/19 02:54:23;;;;;;;5.90;3.75;;;;;;;;;;6071616;23;20013;-75
2024/02/19 02:56:50;;;;;;;6.40;3.80;;;;;;;;;;6043999;23;20030;-73
2024/02/19 02:59:15;;;;;;;6.53;3.75;;;;;;;;;;6066778;23;20010;-71
2024/02/19 03:01:41;;;;;;;6.72;3.97;;;;;;;;;;6067009;23;20013;-73
2024/02/19 03:04:07;;;;;;;5.57;3.70;;;;;;;;;;6066200;23;20030;-72
2024/02/19 03:06:32;;;;;;;5.60;3.70;;;;;;;;;;6066938;23;20022;-73
2024/02/19 03:08:58;;;;;;;4.78;3.70;;;;;;;;;;6065464;23;20337;-72
2024/02/19 03:11:23;;;;;;;5.03;3.42;;;;;;;;;;6065587;23;20006;-73
2024/02/19 03:13:49;;;;;;;4.28;3.53;;;;;;;;;;6065091;23;20003;-72
2024/02/19 03:16:17;;;;;;;5.18;2.95;;;;;;;;;;6065696;23;20015;-71
2024/02/19 03:18:43;;;;;;;3.33;2.78;;;;;;;;;;6065550;23;20454;-73
2024/02/19 03:21:15;;;;;;;3.47;2.85;;;;;;;;;;6067309;23;20073;-72
2024/02/19 03:23:49;;;;;;;5.07;2.72;;;;;;;;;;6065087;23;20011;-73
2024/02/19 03:26:15;;;;;;;2.97;2.63;;;;;;;;;;6064932;23;20040;-73
2024/02/19 03:28:40;;;;;;;2.75;2.03;;;;;;;;;;6065017;23;20094;-72
2024/02/19 03:31:06;;;;;;;4.13;2.42;;;;;;;;;;6064680;23;20065;-74
2024/02/19 03:33:32;;;;;;;4.60;2.67;;;;;;;;;;6064447;23;20011;-72
2024/02/19 03:35:58;;;;;;;3.25;2.28;;;;;;;;;;6066295;23;20077;-71
2024/02/19 03:38:24;;;;;;;2.47;1.83;;;;;;;;;;6064798;23;20424;-73
2024/02/19 03:40:50;;;;;;;3.67;2.33;;;;;;;;;;6068069;23;20223;-72
2024/02/19 03:43:16;;;;;;;3.78;2.22;;;;;;;;;;6067467;23;20414;-72
2024/02/19 03:45:42;;;;;;;3.22;1.83;;;;;;;;;;6066557;23;19999;-72
2024/02/19 03:48:08;;;;;;;5.88;2.35;;;;;;;;;;6064274;23;20348;-73
2024/02/19 03:50:34;;;;;;;3.97;2.00;;;;;;;;;;6066046;23;20010;-72
2024/02/19 03:53:00;;;;;;;3.38;2.70;;;;;;;;;;6064321;23;20490;-73
2024/02/19 03:55:25;;;;;;;2.25;1.90;;;;;;;;;;6064532;23;20007;-72
2024/02/19 03:57:51;;;;;;;3.05;1.55;;;;;;;;;;6064202;23;20021;-73
2024/02/19 04:00:18;;;;;;;2.00;1.60;;;;;;;;;;6065805;23;20038;-72
2024/02/19 04:02:43;;;;;;;1.50;1.40;;;;;;;;;;6065708;23;20013;-73
2024/02/19 04:05:09;;;;;;;1.85;1.48;;;;;;;;;;6065855;23;20086;-73
2024/02/19 04:07:35;;;;;;;1.95;1.38;;;;;;;;;;6064758;23;20397;-74
2024/02/19 04:10:02;;;;;;;1.77;1.60;;;;;;;;;;6064315;23;20019;-73
2024/02/19 04:12:28;;;;;;;2.97;1.75;;;;;;;;;;6064495;23;20333;-72
2024/02/19 04:14:55;;;;;;;2.28;1.70;;;;;;;;;;6064280;23;20006;-73
2024/02/19 04:17:21;;;;;;;3.95;1.80;;;;;;;;;;6064368;23;20021;-72
2024/02/19 04:19:48;;;;;;;1.52;1.42;;;;;;;;;;6065057;23;20007;-72
2024/02/19 04:22:14;;;;;;;1.65;1.05;;;;;;;;;;6040936;23;20082;-72
2024/02/19 04:24:41;;;;;;;2.22;1.50;;;;;;;;;;6066118;23;20120;-72
2024/02/19 04:27:08;;;;;;;3.25;1.60;;;;;;;;;;6066488;23;20073;-74
2024/02/19 04:29:35;;;;;;;1.15;1.05;;;;;;;;;;6064432;23;20021;-74
2024/02/19 04:32:01;;;;;;;2.30;1.27;;;;;;;;;;6064326;23;20094;-73
2024/02/19 04:34:26;;;;;;;1.00;0.90;;;;;;;;;;6064680;23;20011;-72
2024/02/19 04:36:52;;;;;;;1.05;0.95;;;;;;;;;;6063872;23;20332;-73
2024/02/19 04:39:18;;;;;;;1.40;1.30;;;;;;;;;;6063778;23;20049;-73
2024/02/19 04:41:44;;;;;;;0.82;0.82;;;;;;;;;;6065943;23;20320;-72
2024/02/19 04:44:10;;;;;;;1.77;0.70;;;;;;;;;;6063706;23;20015;-73
2024/02/19 04:46:37;;;;;;;1.27;1.10;;;;;;;;;;6065299;23;20078;-73
2024/02/19 04:49:03;;;;;;;0.90;0.80;;;;;;;;;;6064447;23;20019;-73
2024/02/19 04:51:30;;;;;;;1.95;0.90;;;;;;;;;;6067020;23;20013;-73
2024/02/19 04:53:55;;;;;;;0.93;0.90;;;;;;;;;;6065251;23;20014;-73
2024/02/19 04:56:22;;;;;;;1.27;0.95;;;;;;;;;;6039760;23;20086;-72
2024/02/19 04:58:48;;;;;;;1.67;1.05;;;;;;;;;;6064481;23;20007;-72
2024/02/19 05:01:13;;;;;;;2.00;0.80;;;;;;;;;;6040182;23;20010;-73
2024/02/19 05:03:39;;;;;;;1.00;0.90;;;;;;;;;;6039960;23;20462;-74
2024/02/19 05:06:05;;;;;;;0.93;0.90;;;;;;;;;;6039335;23;20003;-74
2024/02/19 05:08:31;;;;;;;0.70;0.70;;;;;;;;;;6064966;23;20006;-73
2024/02/19 05:10:57;;;;;;;2.13;0.75;;;;;;;;;;6065272;23;20112;-74
2024/02/19 05:13:22;;;;;;;1.45;0.95;;;;;;;;;;6040019;23;20369;-73
2024/02/19 05:15:49;;;;;;;1.80;0.65;;;;;;;;;;6015854;23;20323;-74
2024/02/19 05:18:15;;;;;;;1.45;0.57;;;;;;;;;;6040888;23;20433;-73
2024/02/19 05:20:42;;;;;;;0.73;0.73;;;;;;;;;;6070066;23;20011;-72
2024/02/19 05:23:08;;;;;;;0.88;0.77;;;;;;;;;;6042567;23;20445;-73
2024/02/19 05:25:37;;;;;;;0.88;0.80;;;;;;;;;;6066520;23;20041;-74
2024/02/19 05:28:02;;;;;;;0.75;0.70;;;;;;;;;;6039938;23;20010;-72
2024/02/19 05:30:28;;;;;;;2.35;0.70;;;;;;;;;;6065405;23;20369;-73
2024/02/19 05:32:54;;;;;;;0.50;0.50;;;;;;;;;;6040064;23;20003;-72
2024/02/19 05:35:20;;;;;;;0.85;0.75;;;;;;;;;;6067772;23;20022;-72
2024/02/19 05:37:46;;;;;;;1.75;1.05;;;;;;;;;;6045595;23;20009;-74
2024/02/19 05:40:12;;;;;;;1.02;0.60;;;;;;;;;;6049970;23;20075;-73
2024/02/19 05:42:38;;;;;;;0.95;0.60;;;;;;;;;;6051320;23;20058;-74
2024/02/19 05:45:06;;;;;;;0.82;0.60;;;;;;;;;;6078104;23;20009;-74
2024/02/19 05:47:34;;;;;;;1.10;0.70;;;;;;;;;;6046938;23;20003;-72
2024/02/19 05:50:00;;;;;;;1.58;0.70;;;;;;;;;;6016491;23;20023;-72
2024/02/19 05:52:29;;;;;;;0.75;0.60;;;;;;;;;;6065249;23;20050;-72
2024/02/19 05:54:58;;;;;;;1.08;0.70;;;;;;;;;;6039767;23;20085;-73
2024/02/19 05:57:25;;;;;;;1.13;0.75;;;;;;;;;;6039355;23;20017;-73
2024/02/19 05:59:50;;;;;;;0.60;0.60;;;;;;;;;;6040060;23;20011;-72
2024/02/19 06:02:18;;;;;;;1.27;0.52;;;;;;;;;;6065392;23;20023;-73
2024/02/19 06:04:44;;;;;;;0.57;0.55;;;;;;;;;;6040379;23;20017;-72
2024/02/19 06:07:09;;;;;;;0.40;0.40;;;;;;;;;;6039275;23;20014;-74
2024/02/19 06:09:35;;;;;;;0.60;0.60;;;;;;;;;;6040271;23;20336;-72
2024/02/19 06:12:02;;;;;;;1.17;0.60;;;;;;;;;;6039122;23;20400;-73
2024/02/19 06:14:28;;;;;;;0.40;0.40;;;;;;;;;;6039812;23;20011;-74
2024/02/19 06:16:54;;;;;;;0.50;0.50;;;;;;;;;;6039227;23;20029;-73
2024/02/19 06:19:20;;;;;;;0.47;0.32;;;;;;;;;;6039435;23;20090;-72
2024/02/19 06:21:46;;;;;;;1.08;0.63;;;;;;;;;;6016304;23;20018;-73
2024/02/19 06:24:13;;;;;;;0.38;0.38;;;;;;;;;;6040910;23;20007;-71
2024/02/19 06:26:38;;;;;;;0.25;0.25;;;;;;;;;;6040964;23;20010;-74
2024/02/19 06:29:06;;;;;;;0.75;0.52;;;;;;;;;;6040459;23;20011;-73
2024/02/19 06:31:31;;;;;;;0.70;0.45;;;;;;;;;;6065530;23;20045;-71
2024/02/19 06:33:57;;;;;;;2.47;0.50;;;;;;;;;;6066040;23;20424;-73
2024/02/19 06:36:24;;;;;;;0.75;0.50;;;;;;;;;;6063398;23;20030;-73
2024/02/19 06:38:50;;;;;;;0.73;0.57;;;;;;;;;;6016181;23;20010;-74
2024/02/19 06:41:16;;;;;;;2.15;0.40;;;;;;;;;;6039833;23;20006;-74
2024/02/19 06:43:42;;;;;;;0.45;0.40;;;;;;;;;;6040925;23;20066;-73
2024/02/19 06:46:10;;;;;;;0.65;0.40;;;;;;;;;;6040576;23;20015;-74
2024/02/19 06:48:35;;;;;;;0.40;0.40;;;;;;;;;;6064073;23;20018;-75
2024/02/19 06:51:03;;;;;;;0.30;0.30;;;;;;;;;;6065392;23;20006;-73
2024/02/19 06:53:29;;;;;;;1.27;0.70;;;;;;;;;;6061511;23;20029;-74
2024/02/19 06:55:55;;;;;;;0.82;0.45;;;;;;;;;;6067969;23;20014;-75
2024/02/19 06:58:21;;;;;;;0.50;0.40;;;;;;;;;;6066432;23;20021;-74
2024/02/19 07:00:47;;;;;;;0.73;0.40;;;;;;;;;;6068537;23;19999;-74
2024/02/19 07:03:13;;;;;;;0.82;0.52;;;;;;;;;;6065862;23;20309;-74
2024/02/19 07:05:39;;;;;;;0.40;0.40;;;;;;;;;;6066328;23;20085;-73
2024/02/19 07:08:06;;;;;;;3.40;0.30;;;;;;;;;;6065050;23;20492;-74
2024/02/19 07:10:32;;;;;;;0.40;0.30;;;;;;;;;;6041292;23;20018;-76
2024/02/19 07:12:57;;;;;;;0.60;0.38;;;;;;;;;;6067281;23;20030;-75
2024/02/19 07:15:23;;;;;;;1.55;0.40;;;;;;;;;;6066580;23;20491;-75
2024/02/19 07:17:50;;;;;;;0.43;0.30;;;;;;;;;;6067418;23;20007;-74
2024/02/19 07:20:17;;;;;;;0.40;0.40;;;;;;;;;;6067815;23;20003;-75
2024/02/19 07:22:42;;;;;;;0.65;0.35;;;;;;;;;;6065857;23;20015;-73
2024/02/19 07:25:08;;;;;;;0.88;0.28;;;;;;;;;;6064785;23;20046;-74
2024/02/19 07:27:34;;;;;;;1.17;0.35;;;;;;;;;;6042204;23;20011;-75
2024/02/19 07:30:00;;;;;;;0.35;0.30;;;;;;;;;;6067166;23;20444;-73
2024/02/19 07:32:26;;;;;;;0.85;0.40;;;;;;;;;;6064035;23;20380;-73
2024/02/19 07:34:52;;;;;;;3.55;0.47;;;;;;;;;;6061729;23;20021;-75
2024/02/19 07:37:17;;;;;;;0.32;0.32;;;;;;;;;;6060964;23;20015;-73
2024/02/19 07:39:43;;;;;;;0.85;0.20;;;;;;;;;;6064859;23;20422;-73
2024/02/19 07:42:09;;;;;;;0.88;0.50;;;;;;;;;;6065801;23;20089;-73
2024/02/19 07:44:35;;;;;;;0.38;0.20;;;;;;;;;;6063664;23;20034;-75
2024/02/19 07:47:04;;;;;;;0.75;0.30;;;;;;;;;;6063998;23;20066;-73
2024/02/19 07:49:30;;;;;;;0.90;0.50;;;;;;;;;;6061788;23;20017;-73
2024/02/19 07:51:56;;;;;;;0.38;0.30;;;;;;;;;;6059228;23;20050;-72
2024/02/19 07:54:21;;;;;;;0.60;0.50;;;;;;;;;;6062899;23;20094;-74
2024/02/19 07:56:48;;;;;;;0.38;0.30;;;;;;;;;;6062624;23;20035;-74
2024/02/19 07:59:14;;;;;;;0.52;0.50;;;;;;;;;;6056496;23;20006;-73
2024/02/19 08:01:40;;;;;;;1.55;0.63;;;;;;;;;;6059654;23;20073;-74
2024/02/19 08:04:06;;;;;;;2.05;0.50;;;;;;;;;;6061136;23;20022;-73
2024/02/19 08:06:31;;;;;;;0.20;0.20;;;;;;;;;;6060142;23;20011;-71
2024/02/19 08:08:59;;;;;;;0.30;0.30;;;;;;;;;;6061821;23;20032;-72
2024/02/19 08:11:27;;;;;;;1.23;0.50;;;;;;;;;;6063480;23;20065;-71
2024/02/19 08:13:53;;;;;;;0.50;0.50;;;;;;;;;;6060138;23;20002;-73
2024/02/19 08:16:19;;;;;;;0.88;0.70;;;;;;;;;;6032008;23;20327;-73
2024/02/19 08:18:45;;;;;;;1.77;0.60;;;;;;;;;;6064951;23;20622;-75
2024/02/19 08:21:11;;;;;;;1.33;0.70;;;;;;;;;;6059229;23;20011;-75
2024/02/19 08:23:37;;;;;;;2.75;0.40;;;;;;;;;;6062914;23;20006;-74
2024/02/19 08:26:04;;;;;;;0.98;0.38;;;;;;;;;;6059725;23;20007;-75
2024/02/19 08:28:30;;;;;;;0.50;0.35;;;;;;;;;;6032894;23;20093;-72
2024/02/19 08:30:56;;;;;;;2.30;0.40;;;;;;;;;;6060685;23;20737;-75
2024/02/19 08:33:24;;;;;;;0.30;0.30;;;;;;;;;;6060954;23;20105;-75
2024/02/19 08:35:53;;;;;;;0.77;0.25;;;;;;;;;;6063832;23;20011;-72
2024/02/19 08:38:18;;;;;;;5.95;0.50;;;;;;;;;;6055077;23;20114;-75
2024/02/19 08:40:44;;;;;;;0.65;0.40;;;;;;;;;;6061751;23;20037;-71
2024/02/19 08:43:11;;;;;;;0.68;0.40;;;;;;;;;;6060624;23;20023;-75
2024/02/19 08:45:38;;;;;;;2.03;0.65;;;;;;;;;;6060668;23;20007;-74
2024/02/19 08:48:04;;;;;;;0.55;0.40;;;;;;;;;;6034225;23;20025;-73
2024/02/19 08:50:30;;;;;;;1.92;0.50;;;;;;;;;;6060909;23;20014;-74
2024/02/19 08:52:56;;;;;;;1.45;0.50;;;;;;;;;;6062237;23;20127;-73
2024/02/19 08:55:23;;;;;;;2.80;0.22;;;;;;;;;;6061451;23;20015;-72
2024/02/19 08:57:49;;;;;;;0.65;0.30;;;;;;;;;;6061571;23;20021;-72
2024/02/19 09:00:15;;;;;;;0.65;0.55;;;;;;;;;;6033731;23;20011;-73
2024/02/19 09:02:49;;;;;;;0.73;0.20;;;;;;;;;;6036092;23;20022;-73
2024/02/19 09:05:19;;;;;;;0.55;0.30;;;;;;;;;;6034259;23;20209;-73
2024/02/19 09:07:45;;;;;;;1.55;0.30;;;;;;;;;;6061950;23;20003;-72
2024/02/19 09:10:11;;;;;;;4.45;0.30;;;;;;;;;;6033322;23;20102;-73
2024/02/19 09:12:36;;;;;;;0.75;0.52;;;;;;;;;;6068000;23;20007;-73
2024/02/19 09:15:04;;;;;;;0.52;0.35;;;;;;;;;;6061323;23;20009;-75
2024/02/19 09:17:29;;;;;;;1.20;0.40;;;;;;;;;;6060960;23;20002;-76
2024/02/19 09:19:57;;;;;;;0.50;0.35;;;;;;;;;;6035978;23;20045;-73
2024/02/19 09:22:27;;;;;;;0.65;0.22;;;;;;;;;;6060771;23;20007;-74
2024/02/19 09:24:55;;;;;;;0.40;0.40;;;;;;;;;;6036406;23;20007;-74
2024/02/19 09:27:25;;;;;;;0.75;0.50;;;;;;;;;;6037390;23;20030;-74
2024/02/19 09:29:52;;;;;;;3.03;0.40;;;;;;;;;;6040506;23;20094;-74
2024/02/19 09:32:18;;;;;;;0.70;0.30;;;;;;;;;;6038764;23;20006;-75
2024/02/19 09:34:43;;;;;;;0.40;0.30;;;;;;;;;;6041447;23;20019;-71
2024/02/19 09:37:10;;;;;;;1.08;0.25;;;;;;;;;;6017384;23;20105;-71
2024/02/19 09:39:39;;;;;;;0.10;0.10;;;;;;;;;;6038882;23;20070;-73
2024/02/19 09:42:06;;;;;;;0.38;0.25;;;;;;;;;;6014707;23;20078;-75
2024/02/19 09:44:32;;;;;;;2.42;0.30;;;;;;;;;;6039958;23;20170;-74
2024/02/19 09:47:04;;;;;;;0.98;0.82;;;;;;;;;;6065097;23;20510;-75
2024/02/19 09:49:31;;;;;;;0.30;0.30;;;;;;;;;;6040865;23;20086;-75
2024/02/19 09:52:01;;;;;;;1.02;0.45;;;;;;;;;;6065598;23;20019;-74
2024/02/19 09:54:29;;;;;;;0.60;0.50;;;;;;;;;;6043670;23;20034;-73
2024/02/19 09:56:56;;;;;;;4.47;1.83;;;;;;;;;;6028805;23;20021;-75
2024/02/19 09:59:22;;;;;;;0.55;0.40;;;;;;;;;;6070612;23;20006;-76
2024/02/19 10:01:49;;;;;;;2.10;0.57;;;;;;;;;;6058585;23;20037;-74
2024/02/19 10:04:15;;;;;;;0.45;0.30;;;;;;;;;;6039639;23;20010;-75
2024/02/19 10:06:42;;;;;;;3.03;0.40;;;;;;;;;;6063603;23;20010;-75
2024/02/19 10:09:08;;;;;;;3.33;0.50;;;;;;;;;;6038271;23;20066;-73
2024/02/19 10:11:38;;;;;;;0.98;0.50;;;;;;;;;;6037622;23;20011;-75
2024/02/19 10:14:05;;;;;;;1.00;0.55;;;;;;;;;;6062758;23;20011;-75
2024/02/19 10:16:31;;;;;;;0.50;0.50;;;;;;;;;;6065393;23;20007;-76
2024/02/19 10:19:05;;;;;;;0.95;0.60;;;;;;;;;;6039071;23;20014;-74
2024/02/19 10:21:30;;;;;;;0.40;0.40;;;;;;;;;;6018446;23;20030;-74
2024/02/19 10:23:56;;;;;;;0.85;0.57;;;;;;;;;;6063843;23;20006;-73
2024/02/19 10:26:22;;;;;;;4.88;0.80;;;;;;;;;;6038220;23;20377;-74
2024/02/19 10:28:55;;;;;;;0.32;0.30;;;;;;;;;;6064426;23;20076;-74
2024/02/19 10:31:21;;;;;;;0.50;0.40;;;;;;;;;;6016075;23;20015;-75
2024/02/19 10:33:47;;;;;;;1.40;0.75;;;;;;;;;;6065255;23;20322;-74
2024/02/19 10:36:18;;;;;;;3.97;0.70;;;;;;;;;;6039221;23;20049;-75
2024/02/19 10:38:44;;;;;;;0.50;0.50;;;;;;;;;;6039208;23;20454;-75
2024/02/19 10:41:10;;;;;;;2.10;0.50;;;;;;;;;;6006134;23;20088;-74
2024/02/19 10:43:36;;;;;;;2.80;0.38;;;;;;;;;;5951854;23;20047;-74
2024/02/19 10:46:04;;;;;;;2.42;0.40;;;;;;;;;;5980250;24;20004;-74
2024/02/19 10:48:31;;;;;;;0.47;0.47;;;;;;;;;;5954314;24;20434;-74
2024/02/19 10:50:58;;;;;;;1.10;0.35;;;;;;;;;;5978938;24;20012;-74
2024/02/19 10:53:29;;;;;;;0.75;0.40;;;;;;;;;;5980482;24;20024;-73
2024/02/19 10:56:17;;;;;;;2.70;0.70;;;;;;;;;;5933458;24;20323;-75
2024/02/19 10:58:55;;;;;;;1.33;0.50;;;;;;;;;;5980088;24;20012;-75
2024/02/19 11:01:37;;;;;;;1.08;0.55;;;;;;;;;;5981340;24;20015;-75
2024/02/19 11:04:19;;;;;;;0.75;0.57;;;;;;;;;;5956890;24;20091;-76
2024/02/19 11:06:52;;;;;;;;;;;;;;;;;;5984403;24;20012;-74
2024/02/19 11:09:19;;;;;;;0.50;0.40;;;;;;;;;;5957202;24;19917;-71
2024/02/19 11:11:51;;;;;;;1.17;0.45;;;;;;;;;;5957216;24;20009;-76
2024/02/19 11:14:23;;;;;;;0.38;0.20;;;;;;;;;;5956505;24;20039;-75
2024/02/19 11:16:50;;;;;;;0.85;0.40;;;;;;;;;;5954471;24;20468;-74
2024/02/19 11:19:18;;;;;;;0.55;0.22;;;;;;;;;;5956328;24;20020;-76
2024/02/19 11:21:45;;;;;;;0.40;0.32;;;;;;;;;;5980812;24;20004;-76
2024/02/19 11:24:12;;;;;;;0.20;0.13;;;;;;;;;;5981243;24;20013;-76
2024/02/19 11:26:42;;;;;;;0.20;0.20;;;;;;;;;;5955957;24;20092;-73
2024/02/19 11:29:15;;;;;;;0.82;0.30;;;;;;;;;;5982617;24;20015;-74
2024/02/19 11:31:41;;;;;;;0.88;0.22;;;;;;;;;;5981334;24;20465;-76
2024/02/19 11:34:17;;;;;;;0.17;0.17;;;;;;;;;;5952888;24;20036;-72
2024/02/19 11:36:46;;;;;;;0.25;0.25;;;;;;;;;;5981972;24;20023;-73
2024/02/19 11:39:13;;;;;;;0.75;0.30;;;;;;;;;;5934321;24;20084;-75
2024/02/19 11:41:42;;;;;;;1.15;0.30;;;;;;;;;;5956406;24;20291;-74
2024/02/19 11:44:15;;;;;;;0.60;0.43;;;;;;;;;;5953742;24;20012;-74
2024/02/19 11:46:43;;;;;;;1.20;0.30;;;;;;;;;;5977811;24;20503;-75
2024/02/19 11:49:12;;;;;;;0.43;0.30;;;;;;;;;;5954674;24;20004;-74
2024/02/19 11:51:41;;;;;;;0.32;0.32;;;;;;;;;;5953380;24;20008;-76
2024/02/19 11:54:10;;;;;;;0.50;0.30;;;;;;;;;;5978710;24;20401;-79
2024/02/19 11:56:52;;;;;;;0.98;0.30;;;;;;;;;;5981413;24;20039;-75
2024/02/19 11:59:22;;;;;;;;;;;;;;;;;;5958003;24;20015;-75
2024/02/19 12:01:55;;;;;;;1.45;0.30;;;;;;;;;;6004746;23;19949;-74
2024/02/19 12:04:35;;;;;;;0.63;0.40;;;;;;;;;;5977974;24;20008;-75
2024/02/19 12:07:53;;;;;;;0.30;0.30;;;;;;;;;;5931926;24;20016;-74
2024/02/19 12:10:20;;;;;;;3.45;0.68;;;;;;;;;;5952061;24;20038;-75
2024/02/19 12:12:46;;;;;;;0.65;0.43;;;;;;;;;;5956226;24;20012;-77
2024/02/19 12:15:21;;;;;;;1.85;0.90;;;;;;;;;;5979195;24;20004;-74
2024/02/19 12:17:51;;;;;;;1.13;0.52;;;;;;;;;;5980125;24;20004;-72
2024/02/19 12:20:22;;;;;;;0.30;0.30;;;;;;;;;;5953477;24;20091;-73
2024/02/19 12:22:51;;;;;;;0.55;0.40;;;;;;;;;;5942289;24;20024;-77
2024/02/19 12:25:27;;;;;;;0.75;0.30;;;;;;;;;;5958206;24;20024;-75
2024/02/19 12:28:03;;;;;;;0.60;0.40;;;;;;;;;;5937370;24;20481;-75
2024/02/19 12:30:29;;;;;;;0.40;0.32;;;;;;;;;;5958485;24;20429;-74
2024/02/19 12:32:59;;;;;;;2.53;0.30;;;;;;;;;;5958376;24;20040;-72
2024/02/19 12:35:47;;;;;;;0.40;0.40;;;;;;;;;;5934451;24;20122;-75
2024/02/19 12:38:19;;;;;;;0.20;0.13;;;;;;;;;;5952469;24;20016;-75
2024/02/19 12:40:54;;;;;;;2.35;0.20;;;;;;;;;;5957059;24;20023;-72
2024/02/19 12:43:22;;;;;;;1.13;0.30;;;;;;;;;;5957893;24;20016;-77
2024/02/19 12:45:48;;;;;;;0.20;0.20;;;;;;;;;;5986832;24;20332;-73
2024/02/19 12:48:20;;;;;;;0.20;0.20;;;;;;;;;;5988567;24;20008;-75
2024/02/19 12:50:52;;;;;;;1.80;0.30;;;;;;;;;;5984189;24;20011;-72
2024/02/19 12:53:18;;;;;;;;;;;;;;;;;;5950429;24;20028;-74
2024/02/19 12:55:56;;;;;;;0.63;0.50;;;;;;;;;;5957766;24;19990;-74
2024/02/19 12:58:25;;;;;;;0.68;0.60;;;;;;;;;;5984370;24;20008;-74
2024/02/19 13:00:51;;;;;;;0.52;0.43;;;;;;;;;;5981443;24;20276;-75
2024/02/19 13:03:20;;;;;;;1.55;0.47;;;;;;;;;;5950556;24;20012;-74
2024/02/19 13:05:47;;;;;;;0.68;0.50;;;;;;;;;;5932591;24;20012;-73
2024/02/19 13:08:17;;;;;;;0.93;0.32;;;;;;;;;;5980781;24;20012;-73
2024/02/19 13:10:49;;;;;;;0.40;0.40;;;;;;;;;;5957229;24;20080;-73
2024/02/19 13:13:16;;;;;;;1.10;0.43;;;;;;;;;;5955471;24;20039;-75
2024/02/19 13:15:46;;;;;;;0.30;0.30;;;;;;;;;;5955689;24;20020;-76
2024/02/19 13:18:13;;;;;;;0.85;0.50;;;;;;;;;;5976329;24;20015;-75
2024/02/19 13:20:43;;;;;;;0.98;0.40;;;;;;;;;;5936686;24;20023;-75
2024/02/19 13:23:10;;;;;;;1.40;0.40;;;;;;;;;;5957773;24;20020;-74
2024/02/19 13:25:42;;;;;;;2.30;0.50;;;;;;;;;;5957017;24;20012;-76
2024/02/19 13:28:10;;;;;;;0.60;0.40;;;;;;;;;;5982023;24;20098;-74
2024/02/19 13:30:40;;;;;;;1.20;0.40;;;;;;;;;;5980968;24;20063;-72
2024/02/19 13:33:09;;;;;;;4.13;0.65;;;;;;;;;;5978875;24;20092;-74
2024/02/19 13:35:39;;;;;;;0.35;0.35;;;;;;;;;;5977068;24;20019;-72
2024/02/19 13:38:08;;;;;;;0.20;0.20;;;;;;;;;;5931920;24;20016;-73
2024/02/19 13:40:34;;;;;;;0.90;0.40;;;;;;;;;;5954597;24;20098;-74
2024/02/19 13:43:03;;;;;;;0.98;0.65;;;;;;;;;;5980715;24;20350;-74
2024/02/19 13:46:02;;;;;;;1.10;0.57;;;;;;;;;;5956070;24;20019;-74
2024/02/19 13:48:30;;;;;;;1.25;0.40;;;;;;;;;;5943690;24;20032;-74
2024/02/19 13:50:58;;;;;;;0.95;0.55;;;;;;;;;;5926820;24;20099;-75
2024/02/19 13:53:27;;;;;;;0.93;0.55;;;;;;;;;;5957231;24;20083;-75
2024/02/19 13:55:54;;;;;;;2.28;0.70;;;;;;;;;;5958604;24;20016;-75
2024/02/19 13:58:24;;;;;;;1.55;0.40;;;;;;;;;;5954099;24;20019;-75
2024/02/19 14:01:00;;;;;;;0.57;0.45;;;;;;;;;;5983345;24;20015;-75
2024/02/19 14:03:26;;;;;;;1.17;0.50;;;;;;;;;;5960362;24;20042;-75
2024/02/19 14:05:52;;;;;;;1.17;0.43;;;;;;;;;;5942435;24;20008;-75
2024/02/19 14:08:21;;;;;;;0.50;0.40;;;;;;;;;;5969906;24;20012;-75
2024/02/19 14:10:51;;;;;;;2.65;0.82;;;;;;;;;;5962142;24;20106;-75
2024/02/19 14:13:20;;;;;;;0.50;0.50;;;;;;;;;;5981649;24;20073;-75
2024/02/19 14:15:48;;;;;;;0.40;0.40;;;;;;;;;;5986109;24;20008;-75
2024/02/19 14:18:17;;;;;;;0.90;0.60;;;;;;;;;;5959438;24;20039;-76
2024/02/19 14:20:45;;;;;;;0.95;0.40;;;;;;;;;;5958641;24;20469;-74
2024/02/19 14:23:31;;;;;;;2.20;0.65;;;;;;;;;;5984002;24;20386;-75
2024/02/19 14:26:01;;;;;;;2.75;0.82;;;;;;;;;;5982927;24;20007;-75
2024/02/19 14:28:30;;;;;;;0.85;0.40;;;;;;;;;;5984168;24;20095;-75
2024/02/19 14:31:15;;;;;;;2.78;0.68;;;;;;;;;;5960079;24;20031;-72
2024/02/19 14:33:47;;;;;;;0.50;0.32;;;;;;;;;;5937171;24;20015;-74
2024/02/19 14:36:16;;;;;;;1.17;0.60;;;;;;;;;;5982755;24;20283;-72
2024/02/19 14:38:46;;;;;;;2.85;0.80;;;;;;;;;;5979554;24;20266;-73
2024/02/19 14:41:13;;;;;;;1.08;0.60;;;;;;;;;;5933946;24;20020;-75
2024/02/19 14:43:41;;;;;;;2.90;0.70;;;;;;;;;;5983799;24;20031;-75
2024/02/19 14:46:18;;;;;;;1.17;0.60;;;;;;;;;;5958095;24;20018;-74